Time;durP1;ratioP1;P1;durP2;ratioP2;P2;SDS_P1;SDS_P2;PMS_P1;PMS_P2;Temp;Humidity;BMP_temperature;BMP_pressure;BME280_temperature;BME280_humidity;BME280_pressure;Samples;Min_cycle;Max_cycle;Signal;HPM_P1;HPM_P2
2022/05/25 00:00:46;;;;;;;;;;;21.00;52.10;;;;;;467988;254;981;-78
2022/05/25 00:02:47;;;;;;;;;;;21.00;52.00;;;;;;468030;254;1063;-78
2022/05/25 00:04:49;;;;;;;;;;;21.00;51.90;;;;;;468061;254;1259;-78
2022/05/25 00:06:50;;;;;;;;;;;20.90;52.00;;;;;;468048;254;1106;-78
2022/05/25 00:08:51;;;;;;;;;;;20.90;52.20;;;;;;467998;254;987;-78
2022/05/25 00:10:53;;;;;;;;;;;20.80;52.30;;;;;;468277;254;1001;-78
2022/05/25 00:12:54;;;;;;;;;;;20.90;52.30;;;;;;468002;251;1252;-78
2022/05/25 00:14:55;;;;;;;;;;;20.80;52.30;;;;;;468000;254;1018;-78
2022/05/25 00:16:57;;;;;;;;;;;20.90;52.40;;;;;;468005;254;2184;-78
2022/05/25 00:21:17;;;;;;;;;;;21.00;52.30;;;;;;474036;251;1046;-78
2022/05/25 00:23:18;;;;;;;;;;;21.00;52.20;;;;;;474140;251;1070;-78
2022/05/25 00:25:20;;;;;;;;;;;21.00;52.10;;;;;;474313;251;1156;-78
2022/05/25 00:27:21;;;;;;;;;;;21.00;52.10;;;;;;476094;250;1154;-78
2022/05/25 00:29:22;;;;;;;;;;;21.00;52.10;;;;;;474257;250;1293;-78
2022/05/25 00:31:24;;;;;;;;;;;20.90;52.10;;;;;;474096;251;1169;-78
2022/05/25 00:33:25;;;;;;;;;;;20.90;52.20;;;;;;467605;255;1087;-78
2022/05/25 00:35:26;;;;;;;;;;;20.90;52.30;;;;;;467916;255;1191;-78
2022/05/25 00:37:28;;;;;;;;;;;20.90;52.30;;;;;;467948;254;2209;-78
2022/05/25 00:39:29;;;;;;;;;;;20.90;52.40;;;;;;467999;254;1131;-78
2022/05/25 00:41:30;;;;;;;;;;;20.90;52.40;;;;;;467971;254;1145;-78
2022/05/25 00:43:32;;;;;;;;;;;20.90;52.30;;;;;;468017;254;1056;-78
2022/05/25 00:45:33;;;;;;;;;;;20.90;52.30;;;;;;467904;254;983;-78
2022/05/25 00:47:34;;;;;;;;;;;20.90;52.30;;;;;;467954;254;1122;-78
2022/05/25 00:49:36;;;;;;;;;;;20.90;52.30;;;;;;467982;254;1337;-78
2022/05/25 00:51:37;;;;;;;;;;;20.90;52.30;;;;;;467932;254;1120;-78
2022/05/25 00:53:38;;;;;;;;;;;20.80;52.30;;;;;;468125;254;1212;-78
2022/05/25 00:55:40;;;;;;;;;;;20.90;52.40;;;;;;468010;254;1128;-78
2022/05/25 00:57:41;;;;;;;;;;;20.90;52.40;;;;;;468005;254;2209;-78
2022/05/25 00:59:42;;;;;;;;;;;21.00;52.20;;;;;;468037;254;1100;-78
2022/05/25 01:01:44;;;;;;;;;;;20.90;52.20;;;;;;468036;254;1041;-78
2022/05/25 01:03:45;;;;;;;;;;;21.00;52.20;;;;;;468031;254;1060;-78
2022/05/25 01:05:46;;;;;;;;;;;21.00;52.10;;;;;;468024;254;1204;-78
2022/05/25 01:07:49;;;;;;;;;;;20.90;52.00;;;;;;467979;254;1116;-78
2022/05/25 01:09:49;;;;;;;;;;;20.90;52.00;;;;;;467994;254;1512;-78
2022/05/25 01:11:50;;;;;;;;;;;20.90;52.00;;;;;;468110;254;1072;-78
2022/05/25 01:13:52;;;;;;;;;;;20.90;52.10;;;;;;468220;253;1346;-78
2022/05/25 01:15:53;;;;;;;;;;;20.90;52.10;;;;;;467946;251;1158;-78
2022/05/25 01:17:55;;;;;;;;;;;21.00;52.10;;;;;;468071;251;2125;-78
2022/05/25 01:19:56;;;;;;;;;;;21.00;52.10;;;;;;467889;254;1231;-78
2022/05/25 01:21:57;;;;;;;;;;;21.00;52.10;;;;;;467943;254;1089;-78
2022/05/25 01:23:58;;;;;;;;;;;20.90;52.00;;;;;;467939;254;1118;-78
2022/05/25 01:26:00;;;;;;;;;;;20.90;52.00;;;;;;468081;254;1201;-78
2022/05/25 01:28:01;;;;;;;;;;;20.90;52.10;;;;;;467913;254;1135;-78
2022/05/25 01:30:03;;;;;;;;;;;20.90;52.10;;;;;;474319;250;1013;-78
2022/05/25 01:32:04;;;;;;;;;;;20.90;52.20;;;;;;474056;250;1123;-78
2022/05/25 01:34:05;;;;;;;;;;;20.90;52.20;;;;;;474140;251;1121;-78
2022/05/25 01:36:07;;;;;;;;;;;20.90;52.20;;;;;;476003;250;1307;-78
2022/05/25 01:38:09;;;;;;;;;;;21.00;52.20;;;;;;474050;251;2181;-78
2022/05/25 01:40:10;;;;;;;;;;;21.00;52.20;;;;;;467545;255;1467;-78
2022/05/25 01:42:11;;;;;;;;;;;20.90;52.10;;;;;;475643;251;1437;-78
2022/05/25 01:44:12;;;;;;;;;;;21.00;52.00;;;;;;467963;255;1002;-78
2022/05/25 01:46:14;;;;;;;;;;;20.90;52.00;;;;;;468018;254;1345;-78
2022/05/25 01:48:16;;;;;;;;;;;20.90;52.10;;;;;;467954;254;1067;-78
2022/05/25 01:50:17;;;;;;;;;;;20.90;52.20;;;;;;467968;254;1328;-78
2022/05/25 01:52:19;;;;;;;;;;;20.80;52.30;;;;;;468081;251;1088;-78
2022/05/25 01:54:20;;;;;;;;;;;20.80;52.40;;;;;;468021;254;1015;-78
2022/05/25 01:56:21;;;;;;;;;;;20.90;52.50;;;;;;467971;254;1070;-78
2022/05/25 01:58:23;;;;;;;;;;;20.80;52.40;;;;;;468327;254;2197;-78
2022/05/25 02:00:24;;;;;;;;;;;20.80;52.50;;;;;;468006;254;1054;-78
2022/05/25 02:04:45;;;;;;;;;;;20.80;52.30;;;;;;474013;251;1091;-78
2022/05/25 02:06:46;;;;;;;;;;;20.80;52.30;;;;;;474097;250;1335;-78
2022/05/25 02:08:47;;;;;;;;;;;20.80;52.40;;;;;;474084;251;1055;-78
2022/05/25 02:10:49;;;;;;;;;;;20.90;52.40;;;;;;467742;255;1122;-78
2022/05/25 02:12:50;;;;;;;;;;;20.80;52.40;;;;;;468109;255;1186;-78
2022/05/25 02:14:51;;;;;;;;;;;20.90;52.40;;;;;;468305;254;1202;-78
2022/05/25 02:16:53;;;;;;;;;;;20.90;52.30;;;;;;468016;254;2197;-78
2022/05/25 02:18:54;;;;;;;;;;;20.90;52.20;;;;;;468191;254;1101;-78
2022/05/25 02:20:55;;;;;;;;;;;20.90;52.10;;;;;;467813;254;1179;-78
2022/05/25 02:22:57;;;;;;;;;;;20.90;52.00;;;;;;468018;254;1132;-78
2022/05/25 02:24:58;;;;;;;;;;;21.00;52.10;;;;;;467941;254;1306;-78
2022/05/25 02:26:59;;;;;;;;;;;20.90;52.10;;;;;;468008;254;1169;-78
2022/05/25 02:29:01;;;;;;;;;;;21.00;52.20;;;;;;467965;254;1141;-78
2022/05/25 02:31:02;;;;;;;;;;;21.00;52.20;;;;;;468008;254;1107;-78
2022/05/25 02:33:03;;;;;;;;;;;21.00;52.20;;;;;;468018;254;1172;-78
2022/05/25 02:35:05;;;;;;;;;;;21.00;52.30;;;;;;468055;254;1082;-78
2022/05/25 02:37:06;;;;;;;;;;;20.90;52.20;;;;;;468031;254;2205;-78
2022/05/25 02:39:07;;;;;;;;;;;20.90;52.30;;;;;;468012;254;1101;-78
2022/05/25 02:41:09;;;;;;;;;;;20.90;52.30;;;;;;467972;254;1249;-78
2022/05/25 02:43:10;;;;;;;;;;;20.80;52.30;;;;;;468002;254;979;-78
2022/05/25 02:45:11;;;;;;;;;;;20.90;52.40;;;;;;468002;254;1052;-78
2022/05/25 02:47:13;;;;;;;;;;;20.90;52.50;;;;;;468114;254;1189;-78
2022/05/25 02:49:14;;;;;;;;;;;20.90;52.40;;;;;;468023;254;1021;-78
2022/05/25 02:51:15;;;;;;;;;;;21.00;52.30;;;;;;467936;254;1263;-78
2022/05/25 02:53:17;;;;;;;;;;;20.90;52.20;;;;;;468077;254;994;-78
2022/05/25 02:55:18;;;;;;;;;;;21.00;52.20;;;;;;467963;254;986;-78
2022/05/25 02:57:19;;;;;;;;;;;21.00;52.20;;;;;;468223;254;2193;-78
2022/05/25 02:59:21;;;;;;;;;;;20.90;52.20;;;;;;468011;254;953;-78
2022/05/25 03:01:22;;;;;;;;;;;20.90;52.30;;;;;;467959;254;1228;-78
2022/05/25 03:03:23;;;;;;;;;;;20.80;52.50;;;;;;467946;254;1019;-78
2022/05/25 03:05:25;;;;;;;;;;;20.80;52.50;;;;;;467937;254;1173;-78
2022/05/25 03:07:26;;;;;;;;;;;20.80;52.50;;;;;;467938;254;1141;-78
2022/05/25 03:09:27;;;;;;;;;;;20.90;52.50;;;;;;468049;254;1036;-78
2022/05/25 03:11:29;;;;;;;;;;;20.90;52.40;;;;;;468085;254;1232;-78
2022/05/25 03:13:30;;;;;;;;;;;20.90;52.30;;;;;;468041;254;1083;-78
2022/05/25 03:15:31;;;;;;;;;;;20.90;52.40;;;;;;468144;254;1096;-78
2022/05/25 03:17:33;;;;;;;;;;;20.80;52.30;;;;;;468173;252;2200;-78
2022/05/25 03:19:34;;;;;;;;;;;20.80;52.30;;;;;;468028;254;1106;-78
2022/05/25 03:21:35;;;;;;;;;;;20.90;52.40;;;;;;468065;254;1164;-78
2022/05/25 03:23:37;;;;;;;;;;;20.90;52.40;;;;;;467996;254;1150;-78
2022/05/25 03:25:38;;;;;;;;;;;20.90;52.40;;;;;;468131;254;1175;-78
2022/05/25 03:27:39;;;;;;;;;;;20.90;52.50;;;;;;468115;254;1157;-78
2022/05/25 03:29:41;;;;;;;;;;;20.90;52.40;;;;;;468027;254;1138;-78
2022/05/25 03:31:42;;;;;;;;;;;20.90;52.40;;;;;;468277;254;1468;-78
2022/05/25 03:33:43;;;;;;;;;;;20.90;52.30;;;;;;468030;254;1474;-78
2022/05/25 03:35:45;;;;;;;;;;;20.90;52.20;;;;;;468057;254;1085;-78
2022/05/25 03:37:46;;;;;;;;;;;20.80;52.20;;;;;;468021;254;2208;-78
2022/05/25 03:39:48;;;;;;;;;;;20.90;52.30;;;;;;468059;254;1075;-78
2022/05/25 03:41:49;;;;;;;;;;;20.90;52.40;;;;;;468006;254;1143;-78
2022/05/25 03:43:50;;;;;;;;;;;20.90;52.30;;;;;;468055;254;981;-78
2022/05/25 03:45:51;;;;;;;;;;;20.90;52.30;;;;;;468071;254;1132;-78
2022/05/25 03:47:53;;;;;;;;;;;20.90;52.40;;;;;;468008;254;1204;-78
2022/05/25 03:49:54;;;;;;;;;;;20.90;52.40;;;;;;468012;254;1284;-78
2022/05/25 03:51:55;;;;;;;;;;;20.90;52.30;;;;;;467854;254;1134;-78
2022/05/25 03:53:57;;;;;;;;;;;21.00;52.40;;;;;;468197;254;1156;-78
2022/05/25 03:55:59;;;;;;;;;;;21.00;52.30;;;;;;467874;254;1154;-78
2022/05/25 03:57:59;;;;;;;;;;;21.00;52.20;;;;;;467894;254;2208;-78
2022/05/25 04:00:01;;;;;;;;;;;21.00;52.20;;;;;;467990;254;1164;-78
2022/05/25 04:02:02;;;;;;;;;;;21.00;52.20;;;;;;467850;254;1281;-78
2022/05/25 04:04:03;;;;;;;;;;;20.90;52.20;;;;;;467949;254;1161;-78
2022/05/25 04:06:05;;;;;;;;;;;20.90;52.30;;;;;;467906;254;1251;-78
2022/05/25 04:08:06;;;;;;;;;;;20.90;52.40;;;;;;467998;254;1152;-78
2022/05/25 04:10:07;;;;;;;;;;;20.90;52.30;;;;;;468087;254;1172;-77
2022/05/25 04:12:09;;;;;;;;;;;20.90;52.30;;;;;;468116;254;1142;-78
2022/05/25 04:14:10;;;;;;;;;;;20.80;52.40;;;;;;468019;254;1330;-78
2022/05/25 04:16:11;;;;;;;;;;;20.80;52.40;;;;;;468062;251;1227;-78
2022/05/25 04:18:13;;;;;;;;;;;20.80;52.40;;;;;;467882;254;2204;-78
2022/05/25 04:20:14;;;;;;;;;;;20.90;52.60;;;;;;468109;254;1172;-78
2022/05/25 04:22:15;;;;;;;;;;;20.90;52.50;;;;;;467953;254;1129;-78
2022/05/25 04:24:17;;;;;;;;;;;20.80;52.50;;;;;;468082;254;1151;-78
2022/05/25 04:26:18;;;;;;;;;;;20.90;52.50;;;;;;468035;254;1244;-78
2022/05/25 04:28:20;;;;;;;;;;;20.90;52.50;;;;;;468160;254;1110;-78
2022/05/25 04:30:21;;;;;;;;;;;20.90;52.40;;;;;;468076;254;1142;-78
2022/05/25 04:32:22;;;;;;;;;;;20.90;52.40;;;;;;467851;254;1335;-78
2022/05/25 04:34:24;;;;;;;;;;;20.80;52.50;;;;;;467848;254;1092;-78
2022/05/25 04:36:25;;;;;;;;;;;20.80;52.50;;;;;;467962;254;1476;-78
2022/05/25 04:38:26;;;;;;;;;;;20.80;52.50;;;;;;467870;254;2184;-78
2022/05/25 04:40:28;;;;;;;;;;;20.80;52.60;;;;;;467906;254;1217;-78
2022/05/25 04:42:29;;;;;;;;;;;20.90;52.60;;;;;;467865;254;1009;-78
2022/05/25 04:44:30;;;;;;;;;;;20.80;52.60;;;;;;467879;254;1103;-78
2022/05/25 04:46:32;;;;;;;;;;;20.90;52.50;;;;;;467853;254;1143;-78
2022/05/25 04:48:33;;;;;;;;;;;20.80;52.50;;;;;;467912;254;1070;-78
2022/05/25 04:50:34;;;;;;;;;;;20.90;52.40;;;;;;467822;254;1148;-78
2022/05/25 04:52:36;;;;;;;;;;;20.90;52.40;;;;;;467911;254;1137;-78
2022/05/25 04:54:37;;;;;;;;;;;20.90;52.40;;;;;;467843;254;1081;-78
2022/05/25 04:58:58;;;;;;;;;;;20.90;52.40;;;;;;473837;251;2118;-78
2022/05/25 05:00:59;;;;;;;;;;;20.90;52.40;;;;;;473849;250;1111;-78
2022/05/25 05:03:00;;;;;;;;;;;20.90;52.50;;;;;;473829;251;1049;-78
2022/05/25 05:05:02;;;;;;;;;;;20.90;52.40;;;;;;467407;255;1090;-78
2022/05/25 05:07:03;;;;;;;;;;;21.00;52.40;;;;;;467754;255;1142;-78
2022/05/25 05:09:06;;;;;;;;;;;20.90;52.30;;;;;;467763;254;1283;-78
2022/05/25 05:11:06;;;;;;;;;;;20.90;52.30;;;;;;467726;255;1530;-78
2022/05/25 05:13:07;;;;;;;;;;;20.80;52.30;;;;;;468052;254;1142;-78
2022/05/25 05:15:08;;;;;;;;;;;20.90;52.50;;;;;;467632;254;1198;-78
2022/05/25 05:17:09;;;;;;;;;;;20.80;52.50;;;;;;467785;254;1151;-78
2022/05/25 05:19:11;;;;;;;;;;;20.80;52.50;;;;;;467938;254;2188;-78
2022/05/25 05:21:12;;;;;;;;;;;20.80;52.60;;;;;;467633;254;1057;-78
2022/05/25 05:23:13;;;;;;;;;;;20.80;52.70;;;;;;467723;254;1260;-78
2022/05/25 05:25:15;;;;;;;;;;;20.90;52.60;;;;;;467682;254;1217;-79
2022/05/25 05:27:16;;;;;;;;;;;20.90;52.50;;;;;;467900;254;1160;-78
2022/05/25 05:29:17;;;;;;;;;;;20.90;52.50;;;;;;467786;254;1207;-78
2022/05/25 05:31:19;;;;;;;;;;;20.90;52.40;;;;;;467935;252;1139;-78
2022/05/25 05:33:20;;;;;;;;;;;20.80;52.40;;;;;;467907;254;1100;-78
2022/05/25 05:35:21;;;;;;;;;;;20.80;52.40;;;;;;467913;254;1129;-78
2022/05/25 05:37:23;;;;;;;;;;;20.80;52.50;;;;;;467644;254;1105;-78
2022/05/25 05:39:24;;;;;;;;;;;20.80;52.60;;;;;;467926;254;2169;-78
2022/05/25 05:41:25;;;;;;;;;;;20.80;52.50;;;;;;467944;254;1076;-78
2022/05/25 05:43:27;;;;;;;;;;;20.90;52.60;;;;;;467619;254;1193;-78
2022/05/25 05:45:28;;;;;;;;;;;20.80;52.60;;;;;;467664;254;1117;-78
2022/05/25 05:47:29;;;;;;;;;;;20.80;52.60;;;;;;467620;254;1194;-78
2022/05/25 05:49:31;;;;;;;;;;;20.80;52.60;;;;;;467641;254;1331;-78
2022/05/25 05:51:32;;;;;;;;;;;20.90;52.60;;;;;;467545;254;1334;-78
2022/05/25 05:53:33;;;;;;;;;;;20.90;52.50;;;;;;467480;254;1224;-78
2022/05/25 05:55:34;;;;;;;;;;;20.90;52.50;;;;;;467646;254;1221;-78
2022/05/25 05:57:36;;;;;;;;;;;20.90;52.50;;;;;;467651;254;1290;-78
2022/05/25 05:59:38;;;;;;;;;;;20.80;52.40;;;;;;467479;254;2203;-78
2022/05/25 06:01:39;;;;;;;;;;;20.70;52.60;;;;;;467770;254;1116;-78
2022/05/25 06:03:41;;;;;;;;;;;20.70;52.60;;;;;;467609;254;1064;-78
2022/05/25 06:05:43;;;;;;;;;;;20.80;52.80;;;;;;467490;254;1033;-78
2022/05/25 06:07:43;;;;;;;;;;;20.80;52.70;;;;;;467516;254;1383;-78
2022/05/25 06:09:45;;;;;;;;;;;20.80;52.70;;;;;;467512;254;1157;-78
2022/05/25 06:11:46;;;;;;;;;;;20.80;52.70;;;;;;467659;254;1061;-78
2022/05/25 06:13:47;;;;;;;;;;;20.80;52.70;;;;;;467621;254;1089;-78
2022/05/25 06:20:28;;;;;;;;;;;20.90;52.50;;;;;;473563;251;1117;-78
2022/05/25 06:22:31;;;;;;;;;;;20.90;52.40;;;;;;473786;251;1084;-77
2022/05/25 06:24:30;;;;;;;;;;;20.90;52.40;;;;;;475587;250;1309;-78
2022/05/25 06:26:32;;;;;;;;;;;20.80;52.40;;;;;;473720;251;1110;-78
2022/05/25 06:28:33;;;;;;;;;;;20.80;52.40;;;;;;473830;251;1434;-78
2022/05/25 06:30:34;;;;;;;;;;;20.80;52.60;;;;;;475444;250;1120;-78
2022/05/25 06:32:35;;;;;;;;;;;20.80;52.60;;;;;;473723;251;1233;-78
2022/05/25 06:34:37;;;;;;;;;;;20.80;52.70;;;;;;473615;251;1018;-78
2022/05/25 06:36:38;;;;;;;;;;;20.80;52.70;;;;;;475627;248;1246;-78
2022/05/25 06:38:39;;;;;;;;;;;20.80;52.70;;;;;;473437;251;2162;-78
2022/05/25 06:40:41;;;;;;;;;;;20.80;52.60;;;;;;473514;251;1197;-78
2022/05/25 06:42:42;;;;;;;;;;;20.90;52.70;;;;;;467098;255;1021;-78
2022/05/25 06:44:44;;;;;;;;;;;20.90;52.60;;;;;;467463;255;1093;-78
2022/05/25 06:46:45;;;;;;;;;;;20.90;52.50;;;;;;467416;254;1257;-78
2022/05/25 06:48:46;;;;;;;;;;;20.90;52.40;;;;;;467525;254;1079;-78
2022/05/25 06:50:47;;;;;;;;;;;21.00;52.30;;;;;;467464;254;1051;-78
2022/05/25 06:52:49;;;;;;;;;;;20.90;52.30;;;;;;467468;254;1149;-78
2022/05/25 06:54:50;;;;;;;;;;;20.90;52.40;;;;;;467328;254;1203;-78
2022/05/25 06:56:52;;;;;;;;;;;20.90;52.40;;;;;;467314;254;1322;-78
2022/05/25 06:58:53;;;;;;;;;;;20.80;52.50;;;;;;467118;255;2199;-78
2022/05/25 07:00:54;;;;;;;;;;;20.90;52.60;;;;;;467051;254;1085;-78
2022/05/25 07:02:55;;;;;;;;;;;20.90;52.40;;;;;;466977;254;1076;-78
2022/05/25 07:04:56;;;;;;;;;;;20.90;52.40;;;;;;467075;254;1080;-78
2022/05/25 07:06:58;;;;;;;;;;;20.90;52.40;;;;;;467095;254;1100;-78
2022/05/25 07:08:59;;;;;;;;;;;20.90;52.40;;;;;;466796;254;1227;-78
2022/05/25 07:11:01;;;;;;;;;;;20.80;52.50;;;;;;466772;254;1236;-78
2022/05/25 07:13:02;;;;;;;;;;;20.80;52.50;;;;;;466813;254;1106;-78
2022/05/25 07:15:03;;;;;;;;;;;20.80;52.50;;;;;;466998;254;1070;-78
2022/05/25 07:17:05;;;;;;;;;;;20.90;52.50;;;;;;467425;254;1287;-78
2022/05/25 07:19:06;;;;;;;;;;;20.90;52.60;;;;;;467162;254;2200;-78
2022/05/25 07:21:07;;;;;;;;;;;20.90;52.50;;;;;;467128;254;1183;-78
2022/05/25 07:23:09;;;;;;;;;;;21.00;52.50;;;;;;467191;254;1159;-78
2022/05/25 07:25:10;;;;;;;;;;;21.00;52.50;;;;;;467007;254;1274;-78
2022/05/25 07:27:11;;;;;;;;;;;21.00;52.40;;;;;;467040;254;1208;-78
2022/05/25 07:29:14;;;;;;;;;;;20.90;52.50;;;;;;467359;254;1126;-78
2022/05/25 07:31:14;;;;;;;;;;;20.90;52.50;;;;;;467554;254;1334;-78
2022/05/25 07:33:15;;;;;;;;;;;20.90;52.40;;;;;;467915;254;867;-78
2022/05/25 07:35:17;;;;;;;;;;;20.90;52.40;;;;;;467375;254;1076;-78
2022/05/25 07:37:18;;;;;;;;;;;20.80;52.60;;;;;;467552;251;1061;-78
2022/05/25 07:39:19;;;;;;;;;;;20.90;52.70;;;;;;467606;254;2177;-78
2022/05/25 07:41:20;;;;;;;;;;;20.90;52.50;;;;;;467541;254;1171;-78
2022/05/25 07:43:22;;;;;;;;;;;21.00;52.40;;;;;;467450;254;1081;-78
2022/05/25 07:45:23;;;;;;;;;;;21.00;52.30;;;;;;467354;254;1122;-78
2022/05/25 07:47:24;;;;;;;;;;;20.90;52.40;;;;;;467228;254;1114;-78
2022/05/25 07:49:26;;;;;;;;;;;21.00;52.30;;;;;;467296;254;1156;-78
2022/05/25 07:51:27;;;;;;;;;;;20.90;52.20;;;;;;467353;254;1222;-78
2022/05/25 07:55:48;;;;;;;;;;;20.90;52.40;;;;;;473032;251;1257;-78
2022/05/25 07:57:49;;;;;;;;;;;21.00;52.40;;;;;;473059;251;1114;-78
2022/05/25 07:59:50;;;;;;;;;;;21.00;52.30;;;;;;474994;246;2180;-78
2022/05/25 08:06:30;;;;;;;;;;;20.80;52.60;;;;;;473322;251;1228;-78
2022/05/25 08:08:31;;;;;;;;;;;20.70;52.80;;;;;;473282;250;1062;-78
2022/05/25 08:10:33;;;;;;;;;;;20.60;53.00;;;;;;474939;250;1148;-78
2022/05/25 08:12:34;;;;;;;;;;;20.60;53.20;;;;;;466873;255;1261;-78
2022/05/25 08:14:35;;;;;;;;;;;20.60;53.40;;;;;;467140;255;1242;-78
2022/05/25 08:16:37;;;;;;;;;;;20.60;53.30;;;;;;467249;254;1116;-78
2022/05/25 08:18:38;;;;;;;;;;;20.60;53.50;;;;;;467426;254;1240;-79
2022/05/25 08:20:39;;;;;;;;;;;20.60;53.50;;;;;;467376;254;2172;-78
2022/05/25 08:22:41;;;;;;;;;;;20.60;53.40;;;;;;467683;254;1093;-79
2022/05/25 08:24:43;;;;;;;;;;;20.60;53.40;;;;;;467853;254;1118;-79
2022/05/25 08:26:43;;;;;;;;;;;20.60;53.40;;;;;;467420;254;1529;-78
2022/05/25 08:28:44;;;;;;;;;;;20.60;53.30;;;;;;467529;254;1129;-78
2022/05/25 08:30:46;;;;;;;;;;;20.60;53.30;;;;;;467814;254;1046;-78
2022/05/25 08:32:47;;;;;;;;;;;20.60;53.20;;;;;;467465;254;1211;-78
2022/05/25 08:34:48;;;;;;;;;;;20.60;53.20;;;;;;467655;254;1090;-78
2022/05/25 08:36:50;;;;;;;;;;;20.50;53.30;;;;;;467527;254;1147;-78
2022/05/25 08:38:53;;;;;;;;;;;20.50;53.40;;;;;;467694;254;2209;-78
2022/05/25 08:40:54;;;;;;;;;;;20.50;53.50;;;;;;467540;254;1214;-78
2022/05/25 08:42:55;;;;;;;;;;;20.50;53.50;;;;;;467844;254;1104;-78
2022/05/25 08:44:56;;;;;;;;;;;20.40;53.40;;;;;;467457;254;1137;-78
2022/05/25 08:46:58;;;;;;;;;;;20.50;53.40;;;;;;467441;254;1074;-78
2022/05/25 08:49:01;;;;;;;;;;;20.50;53.40;;;;;;467552;254;1288;-78
2022/05/25 08:51:01;;;;;;;;;;;20.50;53.40;;;;;;466717;255;1376;-78
2022/05/25 08:53:02;;;;;;;;;;;20.50;53.40;;;;;;466813;254;1064;-78
2022/05/25 08:55:03;;;;;;;;;;;20.50;53.30;;;;;;466980;254;1105;-78
2022/05/25 08:57:05;;;;;;;;;;;20.60;53.30;;;;;;466917;254;1152;-78
2022/05/25 08:59:06;;;;;;;;;;;20.70;53.20;;;;;;466877;254;2212;-78
2022/05/25 09:01:07;;;;;;;;;;;20.60;53.20;;;;;;466799;254;1213;-79
2022/05/25 09:03:09;;;;;;;;;;;20.60;53.20;;;;;;466866;254;1103;-78
2022/05/25 09:05:10;;;;;;;;;;;20.60;53.20;;;;;;466837;254;1084;-78
2022/05/25 09:07:11;;;;;;;;;;;20.60;53.10;;;;;;466871;254;1159;-78
2022/05/25 09:09:13;;;;;;;;;;;20.60;53.10;;;;;;466982;254;1148;-78
2022/05/25 09:11:14;;;;;;;;;;;20.60;53.10;;;;;;466910;254;1152;-78
2022/05/25 09:13:15;;;;;;;;;;;20.50;53.10;;;;;;467003;254;1557;-78
2022/05/25 09:15:16;;;;;;;;;;;20.60;53.20;;;;;;467151;254;1163;-78
2022/05/25 09:17:18;;;;;;;;;;;20.60;53.20;;;;;;467220;254;1112;-78
2022/05/25 09:19:19;;;;;;;;;;;20.60;53.10;;;;;;467123;254;2216;-78
2022/05/25 09:21:21;;;;;;;;;;;20.60;53.00;;;;;;466915;254;1059;-78
2022/05/25 09:23:22;;;;;;;;;;;20.60;52.90;;;;;;466850;254;1022;-78
2022/05/25 09:25:24;;;;;;;;;;;20.70;52.90;;;;;;466964;254;1036;-78
2022/05/25 09:27:25;;;;;;;;;;;20.70;52.80;;;;;;466960;254;1156;-78
2022/05/25 09:29:26;;;;;;;;;;;20.70;52.70;;;;;;467329;254;1264;-78
2022/05/25 09:31:28;;;;;;;;;;;20.60;52.80;;;;;;466757;254;1219;-78
2022/05/25 09:33:29;;;;;;;;;;;20.70;52.90;;;;;;466747;254;1072;-78
2022/05/25 09:35:30;;;;;;;;;;;20.70;52.80;;;;;;466889;254;1434;-78
2022/05/25 09:37:31;;;;;;;;;;;20.80;52.70;;;;;;473135;251;1131;-78
2022/05/25 09:39:32;;;;;;;;;;;20.80;52.60;;;;;;473278;250;2240;-78
2022/05/25 09:41:34;;;;;;;;;;;20.70;52.60;;;;;;473174;251;1112;-78
2022/05/25 09:43:35;;;;;;;;;;;20.70;52.60;;;;;;475454;250;1137;-78
2022/05/25 09:45:37;;;;;;;;;;;20.70;52.60;;;;;;473162;251;1146;-78
2022/05/25 09:47:38;;;;;;;;;;;20.70;52.70;;;;;;473250;251;1239;-78
2022/05/25 09:49:39;;;;;;;;;;;20.70;52.60;;;;;;475455;250;1151;-78
2022/05/25 09:51:41;;;;;;;;;;;20.70;52.70;;;;;;473573;251;1151;-78
2022/05/25 09:53:42;;;;;;;;;;;20.70;52.70;;;;;;473300;251;1082;-78
2022/05/25 09:55:43;;;;;;;;;;;20.70;52.60;;;;;;475342;250;1205;-78
2022/05/25 09:57:46;;;;;;;;;;;20.70;52.60;;;;;;473191;250;1227;-79
2022/05/25 09:59:47;;;;;;;;;;;20.80;52.60;;;;;;473292;251;2189;-78
2022/05/25 10:01:49;;;;;;;;;;;20.90;52.40;;;;;;466881;255;1140;-78
2022/05/25 10:03:50;;;;;;;;;;;20.90;52.40;;;;;;467199;255;1102;-78
2022/05/25 10:05:52;;;;;;;;;;;20.90;52.30;;;;;;467226;254;1152;-78
2022/05/25 10:07:53;;;;;;;;;;;21.00;52.20;;;;;;467611;254;1128;-78
2022/05/25 10:09:54;;;;;;;;;;;21.00;52.10;;;;;;467194;254;1067;-78
2022/05/25 10:11:55;;;;;;;;;;;20.90;52.20;;;;;;467186;254;1182;-78
2022/05/25 10:13:57;;;;;;;;;;;20.80;52.30;;;;;;467108;254;1064;-78
2022/05/25 10:16:01;;;;;;;;;;;20.80;52.40;;;;;;467264;254;1193;-78
2022/05/25 10:17:59;;;;;;;;;;;20.80;52.40;;;;;;473190;251;1500;-78
2022/05/25 10:20:01;;;;;;;;;;;20.70;52.40;;;;;;473323;251;2189;-78
2022/05/25 10:22:02;;;;;;;;;;;20.80;52.40;;;;;;473128;251;1073;-78
2022/05/25 10:24:03;;;;;;;;;;;20.80;52.50;;;;;;475174;250;1094;-78
2022/05/25 10:26:05;;;;;;;;;;;20.80;52.40;;;;;;473293;251;1138;-78
2022/05/25 10:28:07;;;;;;;;;;;20.80;52.30;;;;;;473352;251;1180;-78
2022/05/25 10:37:05;;;;;;;;;;;20.60;52.70;;;;;;467189;254;1292;-78
2022/05/25 10:39:06;;;;;;;;;;;20.60;52.90;;;;;;467251;254;1045;-78
2022/05/25 10:43:28;;;;;;;;;;;20.60;52.90;;;;;;467318;255;1181;-78
2022/05/25 10:45:33;;;;;;;;;;;20.60;52.90;;;;;;467122;254;1122;-78
2022/05/25 10:47:31;;;;;;;;;;;20.60;53.00;;;;;;467005;255;1404;-78
2022/05/25 10:49:33;;;;;;;;;;;20.60;53.00;;;;;;467025;254;1118;-78
2022/05/25 10:51:34;;;;;;;;;;;20.60;53.10;;;;;;466965;254;1078;-78
2022/05/25 10:53:35;;;;;;;;;;;20.60;53.10;;;;;;466996;254;1082;-78
2022/05/25 10:55:37;;;;;;;;;;;20.60;53.00;;;;;;467125;254;1237;-78
2022/05/25 10:57:38;;;;;;;;;;;20.60;52.90;;;;;;467031;254;1151;-78
2022/05/25 10:59:39;;;;;;;;;;;20.70;52.70;;;;;;467118;254;2192;-78
2022/05/25 11:01:41;;;;;;;;;;;20.60;52.70;;;;;;467147;254;1119;-78
2022/05/25 11:03:42;;;;;;;;;;;20.70;52.70;;;;;;467091;254;1469;-78
2022/05/25 11:05:44;;;;;;;;;;;20.70;52.60;;;;;;467327;254;1100;-78
2022/05/25 11:07:45;;;;;;;;;;;20.70;52.50;;;;;;467131;254;1199;-78
2022/05/25 11:09:48;;;;;;;;;;;20.70;52.40;;;;;;467248;254;1426;-78
2022/05/25 11:11:47;;;;;;;;;;;20.80;52.40;;;;;;466963;254;1329;-78
2022/05/25 11:13:51;;;;;;;;;;;20.80;52.20;;;;;;467207;254;1188;-78
2022/05/25 11:15:50;;;;;;;;;;;20.80;52.20;;;;;;467188;255;1315;-78
2022/05/25 11:17:51;;;;;;;;;;;20.90;52.20;;;;;;467374;254;1346;-78
2022/05/25 11:19:53;;;;;;;;;;;21.00;52.10;;;;;;467632;254;2281;-79
2022/05/25 11:21:54;;;;;;;;;;;21.00;51.90;;;;;;467450;254;1091;-78
2022/05/25 11:23:55;;;;;;;;;;;21.00;51.80;;;;;;467466;254;1061;-78
2022/05/25 11:25:57;;;;;;;;;;;20.90;51.80;;;;;;467540;254;1155;-78
2022/05/25 11:27:58;;;;;;;;;;;20.90;51.90;;;;;;467190;254;1211;-78
2022/05/25 11:29:59;;;;;;;;;;;20.80;51.90;;;;;;467375;254;1224;-78
2022/05/25 11:32:01;;;;;;;;;;;20.90;51.90;;;;;;467039;254;1541;-78
2022/05/25 11:34:02;;;;;;;;;;;21.00;51.90;;;;;;473107;251;1122;-78
2022/05/25 11:36:03;;;;;;;;;;;21.00;51.90;;;;;;473296;251;1143;-78
2022/05/25 11:38:05;;;;;;;;;;;21.00;51.80;;;;;;473585;251;1342;-78
2022/05/25 11:40:06;;;;;;;;;;;21.00;51.70;;;;;;475057;250;2187;-78
2022/05/25 11:42:08;;;;;;;;;;;21.00;51.70;;;;;;473235;251;1140;-78
2022/05/25 11:44:09;;;;;;;;;;;21.00;51.60;;;;;;473221;250;1172;-78
2022/05/25 11:46:11;;;;;;;;;;;21.00;51.60;;;;;;466902;255;1137;-78
2022/05/25 11:48:14;;;;;;;;;;;21.00;51.60;;;;;;467758;255;1078;-78
2022/05/25 11:50:13;;;;;;;;;;;21.00;51.40;;;;;;467603;255;1386;-78
2022/05/25 11:52:15;;;;;;;;;;;21.00;51.50;;;;;;467245;254;1181;-78
2022/05/25 11:54:16;;;;;;;;;;;21.00;51.50;;;;;;467255;254;1115;-78
2022/05/25 11:56:17;;;;;;;;;;;21.00;51.40;;;;;;467070;254;1158;-78
2022/05/25 11:58:18;;;;;;;;;;;21.00;51.20;;;;;;467080;254;1129;-78
2022/05/25 12:00:20;;;;;;;;;;;21.00;51.20;;;;;;467033;254;2200;-78
2022/05/25 12:02:21;;;;;;;;;;;20.90;51.10;;;;;;467118;254;1133;-79
2022/05/25 12:04:22;;;;;;;;;;;21.00;51.20;;;;;;467211;254;1209;-78
2022/05/25 12:06:24;;;;;;;;;;;21.00;51.20;;;;;;467097;254;1054;-78
2022/05/25 12:08:25;;;;;;;;;;;20.90;51.20;;;;;;467101;254;1238;-78
2022/05/25 12:10:26;;;;;;;;;;;20.90;51.20;;;;;;473031;251;1154;-78
2022/05/25 12:12:28;;;;;;;;;;;20.90;51.40;;;;;;473217;250;1084;-78
2022/05/25 12:14:31;;;;;;;;;;;20.90;51.40;;;;;;467110;254;1178;-78
2022/05/25 12:16:30;;;;;;;;;;;20.90;51.30;;;;;;467554;254;1741;-78
2022/05/25 12:18:32;;;;;;;;;;;20.90;51.30;;;;;;467364;254;1075;-78
2022/05/25 12:20:33;;;;;;;;;;;20.90;51.30;;;;;;467176;254;2129;-78
2022/05/25 12:22:34;;;;;;;;;;;20.90;51.30;;;;;;467300;254;1558;-78
2022/05/25 12:24:36;;;;;;;;;;;20.90;51.20;;;;;;467113;254;1536;-78